Terminal Aerodrome Forecast
Issued by NWS Mt. Holly, NJ

Home | Current Version | Previous Version | Text Only | Print | Product List | Glossary On
Versions: 1 2 3 4 5 6 7 8 9 10 11 12 13 14 15 16 17 18 19 20 21 22 23 24 25 26 27
000
FTUS41 KPHI 312000 AAA
TAFPHL
TAF AMD
KPHL 312045Z 3121/0124 31014G22KT P6SM SKC
     FM312230 29010KT P6SM SKC
     FM010500 26007KT P6SM SCT100 BKN250
     FM011000 25005KT P6SM BKN100
     FM011700 21003KT P6SM OVC050
     FM012200 12005KT P6SM SCT025 OVC035=

USA.gov is the U.S. government's official web portal to all federal, state and local government web resources and services.